sensor_id;sensor_type;location;lat;lon;timestamp;pressure;altitude;pressure_sealevel;temperature;humidity
34658;BME280;20865;43.312;27.152;2023-02-01T00:01:26;100389.27;;;10.36;42.73
34658;BME280;20865;43.312;27.152;2023-02-01T00:03:54;100402.08;;;10.39;42.70
34658;BME280;20865;43.312;27.152;2023-02-01T00:06:21;100398.64;;;10.34;42.77
34658;BME280;20865;43.312;27.152;2023-02-01T00:08:52;100399.11;;;10.34;42.90
34658;BME280;20865;43.312;27.152;2023-02-01T00:11:18;100399.98;;;10.34;42.87
34658;BME280;20865;43.312;27.152;2023-02-01T00:13:46;100404.06;;;10.31;42.89
34658;BME280;20865;43.312;27.152;2023-02-01T00:16:16;100405.32;;;10.34;42.89
34658;BME280;20865;43.312;27.152;2023-02-01T00:18:46;100413.33;;;10.34;42.90
34658;BME280;20865;43.312;27.152;2023-02-01T00:21:15;100417.39;;;10.33;43.00
34658;BME280;20865;43.312;27.152;2023-02-01T00:23:43;100414.26;;;10.33;43.08
34658;BME280;20865;43.312;27.152;2023-02-01T00:26:25;100412.45;;;10.34;43.15
34658;BME280;20865;43.312;27.152;2023-02-01T00:28:47;100426.27;;;10.33;43.18
34658;BME280;20865;43.312;27.152;2023-02-01T00:31:15;100413.73;;;10.35;43.16
34658;BME280;20865;43.312;27.152;2023-02-01T00:33:42;100412.92;;;10.33;43.15
34658;BME280;20865;43.312;27.152;2023-02-01T00:36:11;100411.51;;;10.36;43.22
34658;BME280;20865;43.312;27.152;2023-02-01T00:38:39;100424.34;;;10.38;43.18
34658;BME280;20865;43.312;27.152;2023-02-01T00:41:13;100429.27;;;10.37;43.21
34658;BME280;20865;43.312;27.152;2023-02-01T00:43:40;100421.67;;;10.38;43.20
34658;BME280;20865;43.312;27.152;2023-02-01T00:46:09;100427.09;;;10.35;43.27
34658;BME280;20865;43.312;27.152;2023-02-01T00:48:37;100425.87;;;10.32;43.38
34658;BME280;20865;43.312;27.152;2023-02-01T00:51:08;100425.89;;;10.31;43.45
34658;BME280;20865;43.312;27.152;2023-02-01T00:53:36;100427.69;;;10.30;43.52
34658;BME280;20865;43.312;27.152;2023-02-01T00:56:04;100425.48;;;10.30;43.57
34658;BME280;20865;43.312;27.152;2023-02-01T00:58:32;100427.69;;;10.30;43.71
34658;BME280;20865;43.312;27.152;2023-02-01T01:01:06;100421.07;;;10.29;43.79
34658;BME280;20865;43.312;27.152;2023-02-01T01:03:36;100419.75;;;10.27;43.84
34658;BME280;20865;43.312;27.152;2023-02-01T01:06:07;100421.94;;;10.29;43.92
34658;BME280;20865;43.312;27.152;2023-02-01T01:08:35;100415.75;;;10.27;43.98
34658;BME280;20865;43.312;27.152;2023-02-01T01:11:14;100424.69;;;10.26;44.10
34658;BME280;20865;43.312;27.152;2023-02-01T01:13:42;100416.72;;;10.23;44.24
34658;BME280;20865;43.312;27.152;2023-02-01T01:16:11;100416.47;;;10.16;44.38
34658;BME280;20865;43.312;27.152;2023-02-01T01:18:39;100414.98;;;10.22;44.32
34658;BME280;20865;43.312;27.152;2023-02-01T01:21:07;100413.59;;;10.23;44.28
34658;BME280;20865;43.312;27.152;2023-02-01T01:23:36;100420.32;;;10.22;44.33
34658;BME280;20865;43.312;27.152;2023-02-01T01:26:12;100413.13;;;10.24;44.29
34658;BME280;20865;43.312;27.152;2023-02-01T01:28:35;100415.00;;;10.20;44.37
34658;BME280;20865;43.312;27.152;2023-02-01T01:31:03;100422.55;;;10.21;44.42
34658;BME280;20865;43.312;27.152;2023-02-01T01:33:30;100421.66;;;10.22;44.39
34658;BME280;20865;43.312;27.152;2023-02-01T01:35:58;100422.53;;;10.22;44.50
34658;BME280;20865;43.312;27.152;2023-02-01T01:38:25;100418.47;;;10.24;44.53
34658;BME280;20865;43.312;27.152;2023-02-01T01:40:53;100415.75;;;10.27;44.49
34658;BME280;20865;43.312;27.152;2023-02-01T01:43:21;100418.41;;;10.29;44.49
34658;BME280;20865;43.312;27.152;2023-02-01T01:45:49;100421.02;;;10.30;44.45
34658;BME280;20865;43.312;27.152;2023-02-01T01:48:28;100428.16;;;10.30;44.57
34658;BME280;20865;43.312;27.152;2023-02-01T01:51:02;100415.20;;;10.31;44.49
34658;BME280;20865;43.312;27.152;2023-02-01T01:53:36;100414.72;;;10.33;44.53
34658;BME280;20865;43.312;27.152;2023-02-01T01:56:03;100406.73;;;10.31;44.56
34658;BME280;20865;43.312;27.152;2023-02-01T01:58:32;100407.99;;;10.34;44.53
34658;BME280;20865;43.312;27.152;2023-02-01T02:01:00;100409.87;;;10.31;44.61
34658;BME280;20865;43.312;27.152;2023-02-01T02:06:03;100407.99;;;10.34;44.49
34658;BME280;20865;43.312;27.152;2023-02-01T02:08:31;100404.45;;;10.34;44.52
34658;BME280;20865;43.312;27.152;2023-02-01T02:10:59;100404.45;;;10.34;44.60
34658;BME280;20865;43.312;27.152;2023-02-01T02:13:43;100409.73;;;10.35;44.51
34658;BME280;20865;43.312;27.152;2023-02-01T02:18:57;100404.45;;;10.34;44.56
34658;BME280;20865;43.312;27.152;2023-02-01T02:35:34;100417.13;;;10.24;44.89
34658;BME280;20865;43.312;27.152;2023-02-01T02:43:48;100413.67;;;10.20;45.07
34658;BME280;20865;43.312;27.152;2023-02-01T02:46:40;100410.53;;;10.21;45.07
34658;BME280;20865;43.312;27.152;2023-02-01T02:49:39;100419.06;;;10.19;45.10
34658;BME280;20865;43.312;27.152;2023-02-01T02:52:12;100424.08;;;10.15;45.19
34658;BME280;20865;43.312;27.152;2023-02-01T02:54:57;100422.76;;;10.13;45.19
34658;BME280;20865;43.312;27.152;2023-02-01T03:00:24;100426.38;;;10.11;44.97
34658;BME280;20865;43.312;27.152;2023-02-01T03:03:09;100421.58;;;10.07;45.00
34658;BME280;20865;43.312;27.152;2023-02-01T03:05:56;100426.64;;;10.01;44.93
34658;BME280;20865;43.312;27.152;2023-02-01T03:08:29;100433.31;;;10.01;45.00
34658;BME280;20865;43.312;27.152;2023-02-01T03:18:57;100438.91;;;10.09;44.64
34658;BME280;20865;43.312;27.152;2023-02-01T03:24:18;100435.91;;;10.05;44.63
34658;BME280;20865;43.312;27.152;2023-02-01T03:26:38;100433.77;;;10.01;44.68
34658;BME280;20865;43.312;27.152;2023-02-01T03:29:09;100425.78;;;9.99;44.73
34658;BME280;20865;43.312;27.152;2023-02-01T03:31:36;100437.87;;;9.96;44.58
34658;BME280;20865;43.312;27.152;2023-02-01T03:34:04;100438.20;;;10.00;44.70
34658;BME280;20865;43.312;27.152;2023-02-01T03:36:48;100438.59;;;10.03;44.68
34658;BME280;20865;43.312;27.152;2023-02-01T03:39:32;100433.25;;;10.03;44.73
34658;BME280;20865;43.312;27.152;2023-02-01T03:42:09;100436.70;;;10.08;44.68
34658;BME280;20865;43.312;27.152;2023-02-01T03:44:36;100443.47;;;10.03;44.73
34658;BME280;20865;43.312;27.152;2023-02-01T03:47:15;100441.73;;;10.02;44.81
34658;BME280;20865;43.312;27.152;2023-02-01T03:49:53;100441.67;;;10.04;44.79
34658;BME280;20865;43.312;27.152;2023-02-01T03:52:28;100435.44;;;10.05;44.74
34658;BME280;20865;43.312;27.152;2023-02-01T03:54:50;100435.46;;;10.03;44.66
34658;BME280;20865;43.312;27.152;2023-02-01T03:57:26;100432.77;;;10.05;44.51
34658;BME280;20865;43.312;27.152;2023-02-01T03:59:50;100445.66;;;10.06;44.51
34658;BME280;20865;43.312;27.152;2023-02-01T04:02:17;100445.67;;;10.04;44.55
34658;BME280;20865;43.312;27.152;2023-02-01T04:04:45;100443.98;;;10.01;44.55
34658;BME280;20865;43.312;27.152;2023-02-01T04:07:12;100446.34;;;9.96;44.74
34658;BME280;20865;43.312;27.152;2023-02-01T04:09:40;100451.27;;;9.95;44.78
34658;BME280;20865;43.312;27.152;2023-02-01T04:12:08;100444.13;;;9.95;44.85
34658;BME280;20865;43.312;27.152;2023-02-01T04:14:36;100453.34;;;10.00;44.76
34658;BME280;20865;43.312;27.152;2023-02-01T04:17:03;100457.42;;;9.97;44.84
34658;BME280;20865;43.312;27.152;2023-02-01T04:19:31;100449.80;;;9.99;44.72
34658;BME280;20865;43.312;27.152;2023-02-01T04:21:58;100456.34;;;9.88;44.82
34658;BME280;20865;43.312;27.152;2023-02-01T04:24:26;100449.55;;;9.92;44.76
34658;BME280;20865;43.312;27.152;2023-02-01T04:26:53;100451.80;;;9.91;44.74
34658;BME280;20865;43.312;27.152;2023-02-01T04:29:21;100455.39;;;9.90;44.76
34658;BME280;20865;43.312;27.152;2023-02-01T04:31:49;100454.55;;;9.88;44.82
34658;BME280;20865;43.312;27.152;2023-02-01T04:34:16;100460.63;;;9.93;44.70
34658;BME280;20865;43.312;27.152;2023-02-01T04:36:44;100465.53;;;9.94;44.68
34658;BME280;20865;43.312;27.152;2023-02-01T04:39:12;100468.23;;;9.92;44.64
34658;BME280;20865;43.312;27.152;2023-02-01T04:41:39;100468.16;;;9.95;44.56
34658;BME280;20865;43.312;27.152;2023-02-01T04:44:20;100467.30;;;9.93;44.54
34658;BME280;20865;43.312;27.152;2023-02-01T04:46:45;100469.95;;;9.95;44.55
34658;BME280;20865;43.312;27.152;2023-02-01T04:49:13;100472.28;;;9.91;44.67
34658;BME280;20865;43.312;27.152;2023-02-01T04:51:42;100465.62;;;9.89;44.63
34658;BME280;20865;43.312;27.152;2023-02-01T04:54:10;100474.97;;;9.89;44.67
34658;BME280;20865;43.312;27.152;2023-02-01T04:56:40;100482.97;;;9.89;44.66
34658;BME280;20865;43.312;27.152;2023-02-01T04:59:09;100486.98;;;9.89;44.56
34658;BME280;20865;43.312;27.152;2023-02-01T05:01:37;100485.18;;;9.90;44.55
34658;BME280;20865;43.312;27.152;2023-02-01T05:04:04;100489.16;;;9.91;44.42
34658;BME280;20865;43.312;27.152;2023-02-01T05:06:32;100493.19;;;9.90;44.41
34658;BME280;20865;43.312;27.152;2023-02-01T05:09:00;100493.17;;;9.91;44.40
34658;BME280;20865;43.312;27.152;2023-02-01T05:11:27;100494.50;;;9.91;44.44
34658;BME280;20865;43.312;27.152;2023-02-01T05:14:12;100488.70;;;9.92;44.39
34658;BME280;20865;43.312;27.152;2023-02-01T05:16:40;100492.25;;;9.92;44.26
34658;BME280;20865;43.312;27.152;2023-02-01T05:19:07;100485.64;;;9.89;44.32
34658;BME280;20865;43.312;27.152;2023-02-01T05:21:35;100488.02;;;9.84;44.41
34658;BME280;20865;43.312;27.152;2023-02-01T05:24:03;100495.56;;;9.84;44.45
34658;BME280;20865;43.312;27.152;2023-02-01T05:26:39;100491.65;;;9.79;44.49
34658;BME280;20865;43.312;27.152;2023-02-01T05:29:07;100493.09;;;9.76;44.54
34658;BME280;20865;43.312;27.152;2023-02-01T05:31:37;100489.95;;;9.77;44.37
34658;BME280;20865;43.312;27.152;2023-02-01T05:34:05;100492.18;;;9.76;44.20
34658;BME280;20865;43.312;27.152;2023-02-01T05:36:32;100497.52;;;9.76;44.22
34658;BME280;20865;43.312;27.152;2023-02-01T05:39:00;100502.44;;;9.75;44.30
34658;BME280;20865;43.312;27.152;2023-02-01T05:41:28;100512.72;;;9.72;44.30
34658;BME280;20865;43.312;27.152;2023-02-01T05:43:55;100506.58;;;9.69;44.53
34658;BME280;20865;43.312;27.152;2023-02-01T05:46:23;100508.83;;;9.68;44.62
34658;BME280;20865;43.312;27.152;2023-02-01T05:48:51;100512.36;;;9.70;44.68
34658;BME280;20865;43.312;27.152;2023-02-01T05:51:18;100509.18;;;9.72;44.72
34658;BME280;20865;43.312;27.152;2023-02-01T05:53:46;100512.30;;;9.73;44.78
34658;BME280;20865;43.312;27.152;2023-02-01T05:56:13;100506.78;;;9.79;44.62
34658;BME280;20865;43.312;27.152;2023-02-01T05:58:41;100514.24;;;9.84;44.65
34658;BME280;20865;43.312;27.152;2023-02-01T06:01:08;100508.39;;;9.86;44.70
34658;BME280;20865;43.312;27.152;2023-02-01T06:03:37;100517.78;;;9.85;44.81
34658;BME280;20865;43.312;27.152;2023-02-01T06:06:05;100508.84;;;9.87;44.75
34658;BME280;20865;43.312;27.152;2023-02-01T06:08:33;100514.11;;;9.90;44.77
34658;BME280;20865;43.312;27.152;2023-02-01T06:11:02;100513.13;;;9.93;44.73
34658;BME280;20865;43.312;27.152;2023-02-01T06:13:30;100517.39;;;10.01;44.83
34658;BME280;20865;43.312;27.152;2023-02-01T06:15:58;100518.87;;;10.13;44.52
34658;BME280;20865;43.312;27.152;2023-02-01T06:18:26;100519.52;;;10.23;44.30
34658;BME280;20865;43.312;27.152;2023-02-01T06:20:58;100522.56;;;10.27;44.20
34658;BME280;20865;43.312;27.152;2023-02-01T06:23:30;100522.00;;;10.32;44.14
34658;BME280;20865;43.312;27.152;2023-02-01T06:26:03;100520.00;;;10.40;44.15
34658;BME280;20865;43.312;27.152;2023-02-01T06:28:32;100509.96;;;10.50;43.86
34658;BME280;20865;43.312;27.152;2023-02-01T06:31:07;100515.77;;;10.49;43.75
34658;BME280;20865;43.312;27.152;2023-02-01T06:33:35;100516.02;;;10.57;43.42
34658;BME280;20865;43.312;27.152;2023-02-01T06:36:05;100512.38;;;10.59;43.31
34658;BME280;20865;43.312;27.152;2023-02-01T06:38:34;100514.80;;;10.68;43.33
34658;BME280;20865;43.312;27.152;2023-02-01T06:41:02;100519.55;;;10.90;43.71
34658;BME280;20865;43.312;27.152;2023-02-01T06:43:31;100521.13;;;11.28;43.59
34658;BME280;20865;43.312;27.152;2023-02-01T06:46:03;100525.41;;;11.63;42.44
34658;BME280;20865;43.312;27.152;2023-02-01T06:48:33;100518.69;;;12.08;42.11
34658;BME280;20865;43.312;27.152;2023-02-01T06:51:01;100520.95;;;12.47;41.53
34658;BME280;20865;43.312;27.152;2023-02-01T06:53:30;100531.97;;;12.89;40.28
34658;BME280;20865;43.312;27.152;2023-02-01T06:56:02;100523.77;;;13.30;39.35
34658;BME280;20865;43.312;27.152;2023-02-01T06:58:31;100535.78;;;13.55;38.68
34658;BME280;20865;43.312;27.152;2023-02-01T07:01:07;100545.56;;;13.92;38.03
34658;BME280;20865;43.312;27.152;2023-02-01T07:03:35;100544.45;;;14.19;37.63
34658;BME280;20865;43.312;27.152;2023-02-01T07:06:03;100541.72;;;14.31;37.01
34658;BME280;20865;43.312;27.152;2023-02-01T07:08:33;100540.05;;;14.39;36.59
34658;BME280;20865;43.312;27.152;2023-02-01T07:11:09;100548.11;;;14.39;36.34
34658;BME280;20865;43.312;27.152;2023-02-01T07:13:32;100542.06;;;14.34;36.65
34658;BME280;20865;43.312;27.152;2023-02-01T07:16:00;100538.50;;;14.55;36.95
34658;BME280;20865;43.312;27.152;2023-02-01T07:18:29;100528.55;;;14.77;36.50
34658;BME280;20865;43.312;27.152;2023-02-01T07:20:58;100526.33;;;14.97;36.23
34658;BME280;20865;43.312;27.152;2023-02-01T07:23:26;100526.33;;;15.08;35.68
34658;BME280;20865;43.312;27.152;2023-02-01T07:25:59;100532.30;;;15.14;35.36
34658;BME280;20865;43.312;27.152;2023-02-01T07:28:29;100536.38;;;15.23;35.31
34658;BME280;20865;43.312;27.152;2023-02-01T07:31:04;100542.09;;;15.36;35.16
34658;BME280;20865;43.312;27.152;2023-02-01T07:33:32;100540.44;;;15.52;34.98
34658;BME280;20865;43.312;27.152;2023-02-01T07:36:02;100539.98;;;15.71;35.18
34658;BME280;20865;43.312;27.152;2023-02-01T07:38:30;100549.95;;;15.80;34.55
34658;BME280;20865;43.312;27.152;2023-02-01T07:41:03;100542.26;;;15.81;34.45
34658;BME280;20865;43.312;27.152;2023-02-01T07:43:32;100539.33;;;15.85;34.40
34658;BME280;20865;43.312;27.152;2023-02-01T07:46:03;100546.58;;;15.75;34.37
34658;BME280;20865;43.312;27.152;2023-02-01T07:48:32;100557.66;;;15.48;34.17
34658;BME280;20865;43.312;27.152;2023-02-01T07:51:09;100550.05;;;15.18;34.52
34658;BME280;20865;43.312;27.152;2023-02-01T07:53:33;100557.52;;;15.22;35.10
34658;BME280;20865;43.312;27.152;2023-02-01T07:56:01;100559.61;;;15.15;35.35
34658;BME280;20865;43.312;27.152;2023-02-01T07:58:29;100562.17;;;14.98;35.25
34658;BME280;20865;43.312;27.152;2023-02-01T08:00:57;100559.00;;;15.09;35.78
34658;BME280;20865;43.312;27.152;2023-02-01T08:03:42;100557.39;;;15.15;35.22
34658;BME280;20865;43.312;27.152;2023-02-01T08:06:10;100555.23;;;15.03;35.35
34658;BME280;20865;43.312;27.152;2023-02-01T08:08:38;100555.79;;;14.80;34.97
34658;BME280;20865;43.312;27.152;2023-02-01T08:11:06;100561.53;;;14.61;35.51
34658;BME280;20865;43.312;27.152;2023-02-01T08:13:34;100558.48;;;14.48;35.86
34658;BME280;20865;43.312;27.152;2023-02-01T08:16:03;100559.88;;;14.46;36.37
34658;BME280;20865;43.312;27.152;2023-02-01T08:18:31;100562.98;;;14.47;36.63
34658;BME280;20865;43.312;27.152;2023-02-01T08:21:04;100564.77;;;14.47;36.15
34658;BME280;20865;43.312;27.152;2023-02-01T08:23:32;100561.00;;;14.30;36.42
34658;BME280;20865;43.312;27.152;2023-02-01T08:26:08;100565.39;;;14.21;36.67
34658;BME280;20865;43.312;27.152;2023-02-01T08:28:37;100567.25;;;14.09;36.99
34658;BME280;20865;43.312;27.152;2023-02-01T08:31:08;100565.63;;;13.93;37.18
34658;BME280;20865;43.312;27.152;2023-02-01T08:33:36;100568.87;;;13.91;37.06
34658;BME280;20865;43.312;27.152;2023-02-01T08:36:05;100563.74;;;13.62;37.15
34658;BME280;20865;43.312;27.152;2023-02-01T08:38:34;100560.19;;;13.61;37.19
34658;BME280;20865;43.312;27.152;2023-02-01T08:41:13;100562.87;;;13.61;37.66
34658;BME280;20865;43.312;27.152;2023-02-01T08:43:41;100557.55;;;13.59;38.10
34658;BME280;20865;43.312;27.152;2023-02-01T08:46:10;100560.23;;;13.59;38.19
34658;BME280;20865;43.312;27.152;2023-02-01T08:48:39;100560.89;;;13.54;38.14
34658;BME280;20865;43.312;27.152;2023-02-01T08:51:09;100552.34;;;13.67;38.05
34658;BME280;20865;43.312;27.152;2023-02-01T08:53:38;100561.89;;;13.64;37.55
34658;BME280;20865;43.312;27.152;2023-02-01T08:56:08;100563.97;;;13.79;37.54
34658;BME280;20865;43.312;27.152;2023-02-01T08:58:37;100564.84;;;13.91;37.17
34658;BME280;20865;43.312;27.152;2023-02-01T09:01:07;100562.80;;;14.08;37.45
34658;BME280;20865;43.312;27.152;2023-02-01T09:03:35;100558.60;;;14.13;36.79
34658;BME280;20865;43.312;27.152;2023-02-01T09:06:09;100563.09;;;14.34;36.55
34658;BME280;20865;43.312;27.152;2023-02-01T09:08:37;100558.83;;;14.28;36.16
34658;BME280;20865;43.312;27.152;2023-02-01T09:11:07;100560.13;;;14.30;35.72
34658;BME280;20865;43.312;27.152;2023-02-01T09:13:35;100545.27;;;14.32;35.85
34658;BME280;20865;43.312;27.152;2023-02-01T09:16:04;100538.05;;;14.22;35.83
34658;BME280;20865;43.312;27.152;2023-02-01T09:18:31;100542.80;;;14.15;35.84
34658;BME280;20865;43.312;27.152;2023-02-01T09:20:59;100533.05;;;14.02;35.88
34658;BME280;20865;43.312;27.152;2023-02-01T09:23:26;100527.12;;;14.04;35.94
34658;BME280;20865;43.312;27.152;2023-02-01T09:25:54;100517.84;;;14.01;36.45
34658;BME280;20865;43.312;27.152;2023-02-01T09:28:21;100512.38;;;14.15;36.42
34658;BME280;20865;43.312;27.152;2023-02-01T09:30:49;100501.53;;;14.28;36.51
34658;BME280;20865;43.312;27.152;2023-02-01T09:33:17;100505.11;;;14.39;36.88
34658;BME280;20865;43.312;27.152;2023-02-01T09:35:44;100493.15;;;14.46;36.84
34658;BME280;20865;43.312;27.152;2023-02-01T09:38:12;100489.16;;;14.76;36.94
34658;BME280;20865;43.312;27.152;2023-02-01T09:40:42;100493.33;;;14.84;37.54
34658;BME280;20865;43.312;27.152;2023-02-01T09:48:52;100469.94;;;15.15;34.40
34658;BME280;20865;43.312;27.152;2023-02-01T09:51:32;100476.28;;;15.33;34.71
34658;BME280;20865;43.312;27.152;2023-02-01T09:59:40;100458.67;;;15.63;34.53
34658;BME280;20865;43.312;27.152;2023-02-01T10:02:17;100459.06;;;15.64;34.03
34658;BME280;20865;43.312;27.152;2023-02-01T10:04:46;100461.35;;;15.74;33.97
34658;BME280;20865;43.312;27.152;2023-02-01T10:10:10;100457.02;;;15.88;34.44
34658;BME280;20865;43.312;27.152;2023-02-01T10:15:20;100453.22;;;15.92;34.00
34658;BME280;20865;43.312;27.152;2023-02-01T10:20:52;100448.52;;;16.15;34.27
34658;BME280;20865;43.312;27.152;2023-02-01T10:26:23;100448.34;;;16.09;33.85
34658;BME280;20865;43.312;27.152;2023-02-01T10:29:01;100459.30;;;16.15;34.01
34658;BME280;20865;43.312;27.152;2023-02-01T10:31:26;100451.93;;;16.18;33.65
34658;BME280;20865;43.312;27.152;2023-02-01T10:33:59;100447.97;;;16.26;33.05
34658;BME280;20865;43.312;27.152;2023-02-01T10:36:55;100447.31;;;16.20;34.04
34658;BME280;20865;43.312;27.152;2023-02-01T10:39:19;100448.74;;;16.28;33.96
34658;BME280;20865;43.312;27.152;2023-02-01T10:41:47;100444.47;;;16.24;33.70
34658;BME280;20865;43.312;27.152;2023-02-01T10:44:18;100453.13;;;16.22;32.57
34658;BME280;20865;43.312;27.152;2023-02-01T10:46:45;100455.91;;;16.29;32.94
34658;BME280;20865;43.312;27.152;2023-02-01T10:49:19;100456.28;;;16.12;33.12
34658;BME280;20865;43.312;27.152;2023-02-01T10:51:51;100462.98;;;15.95;33.39
34658;BME280;20865;43.312;27.152;2023-02-01T10:54:20;100454.56;;;15.84;33.17
34658;BME280;20865;43.312;27.152;2023-02-01T10:56:49;100459.77;;;15.78;33.00
34658;BME280;20865;43.312;27.152;2023-02-01T10:59:23;100455.78;;;15.68;33.09
34658;BME280;20865;43.312;27.152;2023-02-01T11:01:57;100447.12;;;15.42;33.28
34658;BME280;20865;43.312;27.152;2023-02-01T11:04:23;100458.73;;;15.34;33.88
34658;BME280;20865;43.312;27.152;2023-02-01T11:07:07;100447.71;;;15.20;34.39
34658;BME280;20865;43.312;27.152;2023-02-01T11:09:41;100438.02;;;15.26;34.80
34658;BME280;20865;43.312;27.152;2023-02-01T11:12:10;100432.06;;;15.38;34.26
34658;BME280;20865;43.312;27.152;2023-02-01T11:14:39;100421.16;;;15.50;34.74
34658;BME280;20865;43.312;27.152;2023-02-01T11:17:24;100416.27;;;15.49;34.74
34658;BME280;20865;43.312;27.152;2023-02-01T11:19:56;100406.78;;;15.60;34.45
34658;BME280;20865;43.312;27.152;2023-02-01T11:22:22;100414.55;;;15.76;34.55
34658;BME280;20865;43.312;27.152;2023-02-01T11:24:51;100411.77;;;15.78;34.44
34658;BME280;20865;43.312;27.152;2023-02-01T11:27:21;100405.30;;;15.99;34.29
34658;BME280;20865;43.312;27.152;2023-02-01T11:29:51;100404.16;;;15.86;34.32
34658;BME280;20865;43.312;27.152;2023-02-01T11:32:22;100405.68;;;16.00;34.38
34658;BME280;20865;43.312;27.152;2023-02-01T11:35:02;100397.06;;;15.93;34.66
34658;BME280;20865;43.312;27.152;2023-02-01T11:37:39;100392.51;;;15.49;33.94
34658;BME280;20865;43.312;27.152;2023-02-01T11:42:59;100398.52;;;15.54;33.86
34658;BME280;20865;43.312;27.152;2023-02-01T11:45:29;100384.98;;;15.75;34.19
34658;BME280;20865;43.312;27.152;2023-02-01T11:47:58;100378.43;;;15.80;33.82
34658;BME280;20865;43.312;27.152;2023-02-01T11:50:34;100381.75;;;15.77;35.12
34658;BME280;20865;43.312;27.152;2023-02-01T11:55:44;100375.21;;;15.44;34.15
34658;BME280;20865;43.312;27.152;2023-02-01T12:11:39;100347.07;;;15.60;34.86
34658;BME280;20865;43.312;27.152;2023-02-01T12:14:50;100345.32;;;15.87;34.78
34658;BME280;20865;43.312;27.152;2023-02-01T12:17:19;100346.42;;;15.91;33.93
34658;BME280;20865;43.312;27.152;2023-02-01T12:28:31;100338.44;;;15.90;33.66
34658;BME280;20865;43.312;27.152;2023-02-01T12:31:15;100333.56;;;15.79;33.78
34658;BME280;20865;43.312;27.152;2023-02-01T12:33:58;100343.24;;;15.66;34.16
34658;BME280;20865;43.312;27.152;2023-02-01T12:37:01;100339.30;;;15.54;34.17
34658;BME280;20865;43.312;27.152;2023-02-01T12:39:39;100338.23;;;15.39;34.87
34658;BME280;20865;43.312;27.152;2023-02-01T12:42:21;100332.62;;;15.44;34.93
34658;BME280;20865;43.312;27.152;2023-02-01T12:47:33;100331.80;;;15.24;34.66
34658;BME280;20865;43.312;27.152;2023-02-01T12:50:27;100338.67;;;15.21;34.91
34658;BME280;20865;43.312;27.152;2023-02-01T12:52:58;100336.94;;;15.20;35.25
34658;BME280;20865;43.312;27.152;2023-02-01T12:58:17;100349.23;;;15.07;35.49
34658;BME280;20865;43.312;27.152;2023-02-01T13:00:47;100352.54;;;15.04;34.90
34658;BME280;20865;43.312;27.152;2023-02-01T13:06:00;100363.16;;;15.07;35.39
34658;BME280;20865;43.312;27.152;2023-02-01T13:11:09;100356.52;;;14.95;36.07
34658;BME280;20865;43.312;27.152;2023-02-01T13:14:03;100363.59;;;14.97;35.90
34658;BME280;20865;43.312;27.152;2023-02-01T13:16:39;100357.25;;;14.98;36.46
34658;BME280;20865;43.312;27.152;2023-02-01T13:19:29;100347.67;;;14.93;35.93
34658;BME280;20865;43.312;27.152;2023-02-01T13:22:00;100349.64;;;14.89;36.10
34658;BME280;20865;43.312;27.152;2023-02-01T13:24:40;100344.17;;;14.91;36.66
34658;BME280;20865;43.312;27.152;2023-02-01T13:27:14;100341.20;;;14.97;36.67
34658;BME280;20865;43.312;27.152;2023-02-01T13:29:57;100341.59;;;14.98;36.77
34658;BME280;20865;43.312;27.152;2023-02-01T13:35:19;100346.73;;;15.03;36.22
34658;BME280;20865;43.312;27.152;2023-02-01T13:40:41;100349.89;;;14.93;36.54
34658;BME280;20865;43.312;27.152;2023-02-01T13:43:19;100351.23;;;14.93;36.52
34658;BME280;20865;43.312;27.152;2023-02-01T13:45:47;100344.89;;;14.94;36.70
34658;BME280;20865;43.312;27.152;2023-02-01T13:48:38;100346.80;;;14.92;36.95
34658;BME280;20865;43.312;27.152;2023-02-01T13:51:05;100339.91;;;14.95;36.96
34658;BME280;20865;43.312;27.152;2023-02-01T13:53:35;100337.66;;;15.05;36.73
34658;BME280;20865;43.312;27.152;2023-02-01T13:56:15;100330.93;;;15.05;36.33
34658;BME280;20865;43.312;27.152;2023-02-01T13:58:44;100338.61;;;15.04;36.23
34658;BME280;20865;43.312;27.152;2023-02-01T14:03:56;100336.40;;;15.04;35.44
34658;BME280;20865;43.312;27.152;2023-02-01T14:09:31;100337.55;;;14.98;35.96
34658;BME280;20865;43.312;27.152;2023-02-01T14:11:54;100337.69;;;14.95;36.10
34658;BME280;20865;43.312;27.152;2023-02-01T14:19:34;100337.73;;;14.85;36.48
34658;BME280;20865;43.312;27.152;2023-02-01T14:24:52;100329.41;;;14.81;36.92
34658;BME280;20865;43.312;27.152;2023-02-01T14:27:26;100330.11;;;14.75;37.21
34658;BME280;20865;43.312;27.152;2023-02-01T14:29:59;100331.03;;;14.74;37.25
34658;BME280;20865;43.312;27.152;2023-02-01T14:32:39;100333.67;;;14.76;37.17
34658;BME280;20865;43.312;27.152;2023-02-01T14:35:19;100338.23;;;14.74;37.28
34658;BME280;20865;43.312;27.152;2023-02-01T14:37:52;100334.53;;;14.76;37.25
34658;BME280;20865;43.312;27.152;2023-02-01T14:40:26;100330.41;;;14.78;37.32
34658;BME280;20865;43.312;27.152;2023-02-01T14:42:54;100322.58;;;14.73;37.34
34658;BME280;20865;43.312;27.152;2023-02-01T14:58:36;100313.19;;;14.63;37.82
34658;BME280;20865;43.312;27.152;2023-02-01T15:01:22;100323.08;;;14.63;37.75
34658;BME280;20865;43.312;27.152;2023-02-01T15:09:32;100325.24;;;14.44;38.25
34658;BME280;20865;43.312;27.152;2023-02-01T15:17:40;100333.31;;;14.34;38.41
34658;BME280;20865;43.312;27.152;2023-02-01T15:20:21;100332.11;;;14.31;38.57
34658;BME280;20865;43.312;27.152;2023-02-01T15:22:57;100328.55;;;14.30;38.49
34658;BME280;20865;43.312;27.152;2023-02-01T15:25:37;100329.64;;;14.26;38.58